createdAt,value
2019-03-31T00:01:43.649Z,33.43
2019-03-31T00:04:12.282Z,32.03
2019-03-31T00:06:40.779Z,29.03
2019-03-31T00:09:09.370Z,27.90
2019-03-31T00:11:37.930Z,31.70
2019-03-31T00:14:06.454Z,30.10
2019-03-31T00:16:35.024Z,25.87
2019-03-31T00:19:03.666Z,23.87
2019-03-31T00:21:32.222Z,25.83
2019-03-31T00:24:00.835Z,25.60
2019-03-31T00:26:29.429Z,26.83
2019-03-31T00:28:57.946Z,26.37
2019-03-31T00:31:26.658Z,30.20
2019-03-31T00:33:55.257Z,28.93
2019-03-31T00:36:23.811Z,28.93
2019-03-31T00:38:52.430Z,24.87
2019-03-31T00:41:20.985Z,27.00
2019-03-31T00:43:49.502Z,28.30
2019-03-31T00:46:18.142Z,27.70
2019-03-31T00:48:46.666Z,31.80
2019-03-31T00:51:15.214Z,27.50
2019-03-31T00:53:43.736Z,28.23
2019-03-31T00:56:12.290Z,24.70
2019-03-31T00:58:40.894Z,22.17
2019-03-31T01:01:11.861Z,26.60
2019-03-31T01:03:40.730Z,26.60
2019-03-31T01:06:09.866Z,28.70
2019-03-31T01:08:38.512Z,29.87
2019-03-31T01:11:10.418Z,29.53
2019-03-31T01:13:39.382Z,25.83
2019-03-31T01:16:08.115Z,24.07
2019-03-31T01:18:36.930Z,27.63
2019-03-31T01:21:05.486Z,23.13
2019-03-31T01:23:34.170Z,22.20
2019-03-31T01:26:03.088Z,25.57
2019-03-31T01:28:31.945Z,30.53
2019-03-31T01:31:00.570Z,30.13
2019-03-31T01:33:29.546Z,31.07
2019-03-31T01:35:58.101Z,27.00
2019-03-31T01:38:26.718Z,27.27
2019-03-31T01:40:55.486Z,24.10
2019-03-31T01:43:24.086Z,25.20
2019-03-31T01:45:52.953Z,26.50
2019-03-31T01:48:21.558Z,24.20
2019-03-31T01:50:50.191Z,25.33
2019-03-31T01:53:18.792Z,25.10
2019-03-31T01:55:47.366Z,23.07
2019-03-31T01:58:15.957Z,22.67
2019-03-31T02:00:55.170Z,25.23
2019-03-31T02:03:23.919Z,23.13
2019-03-31T02:05:52.405Z,21.40
2019-03-31T02:08:21.065Z,25.30
2019-03-31T02:10:49.686Z,23.93
2019-03-31T02:13:18.200Z,26.00
2019-03-31T02:15:46.759Z,21.03
2019-03-31T02:18:15.338Z,25.33
2019-03-31T02:20:43.872Z,22.23
2019-03-31T02:23:12.538Z,25.27
2019-03-31T02:25:41.082Z,24.80
2019-03-31T02:28:09.594Z,26.93
2019-03-31T02:30:38.151Z,29.87
2019-03-31T02:33:06.811Z,26.47
2019-03-31T02:35:35.370Z,24.40
2019-03-31T02:38:04.034Z,27.73
2019-03-31T02:40:32.663Z,25.17
2019-03-31T02:43:01.339Z,27.07
2019-03-31T02:45:30.057Z,27.40
2019-03-31T02:47:58.618Z,25.43
2019-03-31T02:50:36.243Z,26.77
2019-03-31T02:53:05.001Z,27.93
2019-03-31T02:55:33.899Z,28.53
2019-03-31T02:58:02.583Z,24.50
2019-03-31T03:00:31.712Z,25.83
2019-03-31T03:03:01.821Z,26.23
2019-03-31T03:05:32.412Z,27.23
2019-03-31T03:08:01.835Z,27.27
2019-03-31T03:10:32.905Z,27.07
2019-03-31T03:13:03.179Z,26.63
2019-03-31T03:15:34.931Z,28.93
2019-03-31T03:18:03.563Z,29.97
2019-03-31T03:20:32.149Z,28.77
2019-03-31T03:23:00.713Z,28.80
2019-03-31T03:25:29.367Z,32.30
2019-03-31T03:27:57.927Z,30.60
2019-03-31T03:30:26.583Z,28.67
2019-03-31T03:33:13.455Z,28.40
2019-03-31T03:35:25.415Z,29.73
2019-03-31T03:37:53.985Z,33.40
2019-03-31T03:40:22.575Z,31.90
2019-03-31T03:42:51.132Z,30.33
2019-03-31T03:45:19.718Z,36.50
2019-03-31T03:47:48.275Z,35.83
2019-03-31T03:50:16.858Z,33.33
2019-03-31T03:52:45.348Z,34.13
2019-03-31T03:55:13.927Z,33.40
2019-03-31T03:57:42.487Z,36.57
2019-03-31T04:00:11.403Z,35.83
2019-03-31T04:02:39.967Z,38.73
2019-03-31T04:05:08.626Z,36.80
2019-03-31T04:07:37.116Z,36.70
2019-03-31T04:10:08.894Z,34.07
2019-03-31T04:12:37.458Z,33.40
2019-03-31T04:15:06.119Z,30.37
2019-03-31T04:17:34.673Z,29.10
2019-03-31T04:20:03.752Z,31.27
2019-03-31T04:22:32.317Z,33.20
2019-03-31T04:25:00.899Z,28.33
2019-03-31T04:27:29.560Z,33.20
2019-03-31T04:29:58.143Z,35.13
2019-03-31T04:32:26.708Z,34.90
2019-03-31T04:34:55.312Z,33.43
2019-03-31T04:37:23.870Z,33.50
2019-03-31T04:39:52.429Z,34.47
2019-03-31T04:42:21.084Z,33.47
2019-03-31T04:44:49.643Z,36.43
2019-03-31T04:47:18.231Z,37.30
2019-03-31T04:49:46.797Z,37.23
2019-03-31T04:52:15.390Z,37.37
2019-03-31T04:54:43.870Z,39.20
2019-03-31T04:57:12.382Z,36.70
2019-03-31T04:59:40.940Z,45.17
2019-03-31T05:02:09.542Z,36.27
2019-03-31T05:04:38.030Z,37.20
2019-03-31T05:07:06.580Z,34.17
2019-03-31T05:09:35.094Z,38.00
2019-03-31T05:12:03.635Z,35.53
2019-03-31T05:14:32.152Z,36.80
2019-03-31T05:17:00.708Z,35.20
2019-03-31T05:19:29.318Z,36.17
2019-03-31T05:21:57.892Z,35.67
2019-03-31T05:24:26.458Z,38.47
2019-03-31T05:26:55.044Z,32.77
2019-03-31T05:29:23.612Z,35.97
2019-03-31T05:31:52.338Z,34.77
2019-03-31T05:34:20.964Z,31.13
2019-03-31T05:36:49.542Z,31.67
2019-03-31T05:39:18.138Z,26.87
2019-03-31T05:41:46.848Z,28.63
2019-03-31T05:44:15.411Z,27.20
2019-03-31T05:46:43.938Z,28.30
2019-03-31T05:49:12.559Z,33.70
2019-03-31T05:51:41.154Z,36.53
2019-03-31T05:54:09.712Z,28.53
2019-03-31T05:56:38.367Z,28.70
2019-03-31T05:59:06.850Z,34.50
2019-03-31T06:01:35.450Z,35.60
2019-03-31T06:04:04.186Z,38.73
2019-03-31T06:06:32.674Z,39.00
2019-03-31T06:09:01.262Z,35.20
2019-03-31T06:11:29.742Z,36.93
2019-03-31T06:13:58.378Z,36.30
2019-03-31T06:16:26.997Z,38.70
2019-03-31T06:18:55.581Z,44.50
2019-03-31T06:21:24.463Z,44.80
2019-03-31T06:23:53.062Z,38.97
2019-03-31T06:26:21.628Z,33.70
2019-03-31T06:28:50.209Z,38.57
2019-03-31T06:31:18.809Z,37.20
2019-03-31T06:33:47.320Z,34.10
2019-03-31T06:36:15.882Z,39.20
2019-03-31T06:38:44.471Z,39.70
2019-03-31T06:41:13.030Z,34.80
2019-03-31T06:43:41.555Z,32.63
2019-03-31T06:46:10.099Z,38.90
2019-03-31T06:48:38.623Z,35.17
2019-03-31T06:51:07.183Z,37.33
2019-03-31T06:53:35.778Z,31.57
2019-03-31T06:56:04.330Z,36.53
2019-03-31T06:58:32.919Z,32.70
2019-03-31T07:01:01.571Z,35.07
2019-03-31T07:03:30.162Z,34.43
2019-03-31T07:05:58.730Z,36.97
2019-03-31T07:08:27.329Z,31.33
2019-03-31T07:10:55.818Z,38.27
2019-03-31T07:13:24.447Z,31.10
2019-03-31T07:15:53.092Z,35.57
2019-03-31T07:18:21.612Z,32.83
2019-03-31T07:20:50.728Z,35.53
2019-03-31T07:23:19.304Z,31.43
2019-03-31T07:25:47.803Z,34.67
2019-03-31T07:28:16.450Z,33.30
2019-03-31T07:30:45.110Z,35.60
2019-03-31T07:33:13.666Z,32.90
2019-03-31T07:35:42.187Z,36.47
2019-03-31T07:38:10.793Z,34.03
2019-03-31T07:40:39.598Z,32.63
2019-03-31T07:43:08.323Z,31.90
2019-03-31T07:45:36.909Z,37.50
2019-03-31T07:48:08.114Z,35.60
2019-03-31T07:50:35.698Z,34.40
2019-03-31T07:53:04.323Z,33.17
2019-03-31T07:55:32.835Z,36.80
2019-03-31T07:58:01.447Z,34.60
2019-03-31T08:00:29.983Z,35.97
2019-03-31T08:03:00.246Z,36.30
2019-03-31T08:05:33.243Z,37.40
2019-03-31T08:07:58.990Z,39.73
2019-03-31T08:10:27.494Z,40.77
2019-03-31T08:12:55.983Z,41.63
2019-03-31T08:15:24.570Z,43.60
2019-03-31T08:17:53.196Z,44.67
2019-03-31T08:20:22.032Z,39.77
2019-03-31T08:22:50.592Z,40.43
2019-03-31T08:25:19.421Z,48.20
2019-03-31T08:27:48.157Z,48.33
2019-03-31T08:30:17.073Z,47.13
2019-03-31T08:32:45.566Z,47.60
2019-03-31T08:35:14.391Z,52.07
2019-03-31T08:37:42.940Z,46.07
2019-03-31T08:40:12.901Z,49.47
2019-03-31T08:42:41.602Z,54.53
2019-03-31T08:45:11.127Z,52.40
2019-03-31T08:47:40.679Z,49.97
2019-03-31T08:50:10.109Z,49.83
2019-03-31T08:52:38.936Z,45.97
2019-03-31T08:55:08.268Z,41.47
2019-03-31T08:57:36.824Z,41.87
2019-03-31T09:00:11.611Z,42.53
2019-03-31T09:02:40.238Z,42.57
2019-03-31T09:05:09.775Z,47.13
2019-03-31T09:07:41.678Z,43.07
2019-03-31T09:10:10.174Z,39.17
2019-03-31T09:12:39.030Z,40.93
2019-03-31T09:15:09.124Z,41.77
2019-03-31T09:17:37.879Z,40.80
2019-03-31T09:20:07.099Z,50.40
2019-03-31T09:22:35.954Z,45.50
2019-03-31T09:25:05.584Z,46.67
2019-03-31T09:27:34.172Z,46.53
2019-03-31T09:30:02.995Z,47.57
2019-03-31T09:32:31.595Z,48.43
2019-03-31T09:35:00.361Z,50.03
2019-03-31T09:37:29.126Z,46.40
2019-03-31T09:39:57.688Z,47.70
2019-03-31T09:42:26.203Z,51.23
2019-03-31T09:44:54.762Z,50.00
2019-03-31T09:47:23.350Z,48.13
2019-03-31T09:49:51.829Z,47.67
2019-03-31T09:52:20.390Z,44.57
2019-03-31T09:54:48.955Z,44.17
2019-03-31T09:57:17.566Z,51.30
2019-03-31T09:59:46.057Z,49.50
2019-03-31T10:02:14.716Z,51.17
2019-03-31T10:04:43.264Z,48.10
2019-03-31T10:07:11.915Z,45.83
2019-03-31T10:09:40.742Z,52.17
2019-03-31T10:12:09.359Z,43.50
2019-03-31T10:14:37.915Z,48.90
2019-03-31T10:17:06.496Z,50.40
2019-03-31T10:19:35.069Z,55.23
2019-03-31T10:22:03.646Z,52.70
2019-03-31T10:24:32.223Z,50.43
2019-03-31T10:27:00.854Z,53.30
2019-03-31T10:29:29.407Z,51.87
2019-03-31T10:31:57.983Z,54.73
2019-03-31T10:34:26.641Z,48.03
2019-03-31T10:36:55.199Z,53.87
2019-03-31T10:39:23.705Z,58.37
2019-03-31T10:41:52.210Z,57.00
2019-03-31T10:44:20.733Z,53.67
2019-03-31T10:46:49.278Z,54.03
2019-03-31T10:49:17.867Z,55.77
2019-03-31T10:51:46.349Z,56.60
2019-03-31T10:54:15.010Z,57.43
2019-03-31T10:56:43.642Z,62.67
2019-03-31T10:59:12.211Z,58.67
2019-03-31T11:01:40.919Z,59.63
2019-03-31T11:04:09.567Z,61.90
2019-03-31T11:06:38.160Z,57.27
2019-03-31T11:09:07.158Z,60.87
2019-03-31T11:11:35.762Z,56.03
2019-03-31T11:14:04.390Z,55.63
2019-03-31T11:16:32.989Z,54.73
2019-03-31T11:19:01.536Z,56.30
2019-03-31T11:21:34.674Z,51.47
2019-03-31T11:24:03.241Z,48.80
2019-03-31T11:26:31.795Z,49.30
2019-03-31T11:29:00.316Z,49.63
2019-03-31T11:31:28.893Z,49.27
2019-03-31T11:33:57.482Z,49.83
2019-03-31T11:36:25.970Z,51.77
2019-03-31T11:38:54.566Z,53.60
2019-03-31T11:41:23.059Z,47.23
2019-03-31T11:43:51.616Z,50.17
2019-03-31T11:46:20.220Z,50.23
2019-03-31T11:48:48.770Z,56.80
2019-03-31T11:51:17.362Z,55.50
2019-03-31T11:53:45.938Z,50.60
2019-03-31T11:56:14.530Z,54.80
2019-03-31T11:58:43.086Z,54.20
2019-03-31T12:01:11.684Z,59.13
2019-03-31T12:03:40.238Z,59.70
2019-03-31T12:06:11.282Z,52.97
2019-03-31T12:08:39.094Z,50.13
2019-03-31T12:11:07.602Z,48.93
2019-03-31T12:13:36.086Z,52.83
2019-03-31T12:16:04.682Z,45.53
2019-03-31T12:18:33.246Z,44.70
2019-03-31T12:21:01.914Z,41.77
2019-03-31T12:23:30.480Z,48.67
2019-03-31T12:25:59.062Z,49.20
2019-03-31T12:28:27.548Z,44.60
2019-03-31T12:30:56.131Z,42.47
2019-03-31T12:33:24.620Z,43.10
2019-03-31T12:35:53.207Z,46.50
2019-03-31T12:38:21.767Z,48.63
2019-03-31T12:40:50.432Z,44.83
2019-03-31T12:43:18.986Z,35.30
2019-03-31T12:45:47.504Z,34.73
2019-03-31T12:48:16.068Z,34.00
2019-03-31T12:50:44.662Z,25.13
2019-03-31T12:53:13.220Z,26.93
2019-03-31T12:55:41.808Z,23.57
2019-03-31T12:58:10.372Z,22.27
2019-03-31T13:00:39.026Z,20.40
2019-03-31T13:03:07.586Z,19.30
2019-03-31T13:05:36.247Z,16.60
2019-03-31T13:08:04.870Z,18.60
2019-03-31T13:10:33.364Z,16.67
2019-03-31T13:13:01.966Z,17.57
2019-03-31T13:15:30.450Z,18.77
2019-03-31T13:17:59.108Z,21.63
2019-03-31T13:20:27.675Z,18.30
2019-03-31T13:22:56.327Z,19.33
2019-03-31T13:25:24.961Z,19.80
2019-03-31T13:27:53.542Z,21.70
2019-03-31T13:30:22.201Z,23.70
2019-03-31T13:32:50.985Z,24.90
2019-03-31T13:35:19.686Z,24.77
2019-03-31T13:37:48.270Z,24.03
2019-03-31T13:40:16.838Z,26.17
2019-03-31T13:42:45.350Z,23.37
2019-03-31T13:45:14.406Z,22.80
2019-03-31T13:47:42.991Z,28.13
2019-03-31T13:50:12.108Z,27.67
2019-03-31T13:52:40.624Z,28.93
2019-03-31T13:55:09.115Z,26.47
2019-03-31T13:57:39.811Z,30.67
2019-03-31T14:00:10.694Z,25.80
2019-03-31T14:02:40.199Z,33.47
2019-03-31T14:05:09.084Z,31.97
2019-03-31T14:07:37.597Z,30.50
2019-03-31T14:10:07.103Z,29.93
2019-03-31T14:12:35.692Z,32.33
2019-03-31T14:15:19.224Z,31.50
2019-03-31T14:17:38.522Z,32.37
2019-03-31T14:20:07.923Z,36.97
2019-03-31T14:22:36.519Z,28.97
2019-03-31T14:25:06.317Z,30.70
2019-03-31T14:27:34.927Z,32.37
2019-03-31T14:30:05.489Z,32.30
2019-03-31T14:32:34.187Z,29.80
2019-03-31T14:35:02.841Z,31.57
2019-03-31T14:37:31.399Z,27.50
2019-03-31T14:39:59.995Z,27.30
2019-03-31T14:42:28.554Z,27.77
2019-03-31T14:44:57.278Z,27.73
2019-03-31T14:47:25.904Z,26.40
2019-03-31T14:49:54.492Z,33.80
2019-03-31T14:52:27.699Z,30.97
2019-03-31T14:54:55.740Z,57.83
2019-03-31T14:57:23.506Z,41.70
2019-03-31T14:59:51.995Z,30.87
2019-03-31T15:02:20.597Z,38.53
2019-03-31T15:04:49.167Z,33.23
2019-03-31T15:07:17.726Z,33.40
2019-03-31T15:09:46.250Z,32.17
2019-03-31T15:12:14.821Z,33.83
2019-03-31T15:14:43.413Z,32.70
2019-03-31T15:17:11.970Z,35.00
2019-03-31T15:19:40.573Z,29.80
2019-03-31T15:22:09.133Z,41.60
2019-03-31T15:24:37.725Z,29.37
2019-03-31T15:27:06.291Z,26.33
2019-03-31T15:29:34.885Z,26.93
2019-03-31T15:32:03.518Z,28.90
2019-03-31T15:34:32.042Z,29.97
2019-03-31T15:37:00.606Z,25.80
2019-03-31T15:39:29.205Z,32.00
2019-03-31T15:41:57.759Z,28.50
2019-03-31T15:44:26.385Z,29.70
2019-03-31T15:46:54.973Z,24.93
2019-03-31T15:49:23.549Z,26.40
2019-03-31T15:51:52.149Z,25.00
2019-03-31T15:54:20.699Z,24.90
2019-03-31T15:56:49.355Z,24.00
2019-03-31T15:59:17.958Z,22.03
2019-03-31T16:01:46.520Z,16.93
2019-03-31T16:04:15.121Z,19.80
2019-03-31T16:06:43.689Z,17.47
2019-03-31T16:09:23.367Z,18.63
2019-03-31T16:11:53.084Z,17.80
2019-03-31T16:14:12.971Z,16.37
2019-03-31T16:16:41.564Z,15.13
2019-03-31T16:19:10.127Z,13.10
2019-03-31T16:21:38.722Z,13.80
2019-03-31T16:24:07.356Z,14.53
2019-03-31T16:26:36.015Z,12.50
2019-03-31T16:29:04.646Z,11.83
2019-03-31T16:31:33.235Z,11.57
2019-03-31T16:34:01.789Z,12.43
2019-03-31T16:36:30.390Z,12.37
2019-03-31T16:38:58.949Z,11.20
2019-03-31T16:41:27.833Z,12.27
2019-03-31T16:43:56.462Z,46.03
2019-03-31T16:46:24.988Z,18.10
2019-03-31T16:48:53.477Z,12.00
2019-03-31T16:51:22.061Z,10.13
2019-03-31T16:53:50.632Z,9.43
2019-03-31T16:56:19.316Z,9.30
2019-03-31T16:58:47.863Z,10.27
2019-03-31T17:01:16.446Z,8.70
2019-03-31T17:03:45.013Z,9.10
2019-03-31T17:06:13.731Z,8.87
2019-03-31T17:08:42.317Z,7.87
2019-03-31T17:11:10.877Z,7.73
2019-03-31T17:13:39.389Z,8.50
2019-03-31T17:16:07.946Z,8.20
2019-03-31T17:18:36.470Z,10.43
2019-03-31T17:21:05.195Z,8.17
2019-03-31T17:23:33.834Z,7.87
2019-03-31T17:26:02.389Z,12.27
2019-03-31T17:28:30.913Z,12.23
2019-03-31T17:30:59.473Z,13.43
2019-03-31T17:33:30.335Z,14.90
2019-03-31T17:35:58.253Z,15.93
2019-03-31T17:38:26.786Z,26.87
2019-03-31T17:40:55.344Z,17.23
2019-03-31T17:43:23.958Z,30.10
2019-03-31T17:45:52.446Z,24.90
2019-03-31T17:48:21.045Z,16.13
2019-03-31T17:50:49.599Z,7.73
2019-03-31T17:53:18.241Z,7.40
2019-03-31T17:55:46.803Z,7.43
2019-03-31T17:58:15.391Z,6.83
2019-03-31T18:00:44.002Z,7.23
2019-03-31T18:03:15.427Z,5.83
2019-03-31T18:05:42.745Z,9.57
2019-03-31T18:08:11.257Z,7.83
2019-03-31T18:10:39.834Z,5.63
2019-03-31T18:13:08.409Z,7.07
2019-03-31T18:15:37.064Z,6.37
2019-03-31T18:18:05.657Z,5.90
2019-03-31T18:20:34.214Z,5.47
2019-03-31T18:23:02.865Z,7.43
2019-03-31T18:25:31.350Z,8.07
2019-03-31T18:27:59.989Z,7.23
2019-03-31T18:30:28.581Z,7.87
2019-03-31T18:32:57.195Z,8.53
2019-03-31T18:35:25.785Z,8.03
2019-03-31T18:37:54.474Z,8.47
2019-03-31T18:40:34.343Z,6.93
2019-03-31T18:42:53.277Z,8.43
2019-03-31T18:45:21.877Z,8.47
2019-03-31T18:47:50.445Z,8.53
2019-03-31T18:50:19.054Z,7.33
2019-03-31T18:52:47.997Z,6.63
2019-03-31T18:55:18.166Z,7.50
2019-03-31T18:57:48.520Z,7.67
2019-03-31T19:00:27.855Z,6.83
2019-03-31T19:03:00.831Z,7.17
2019-03-31T19:05:47.411Z,7.50
2019-03-31T19:08:20.361Z,6.80
2019-03-31T19:11:06.593Z,8.73
2019-03-31T19:13:36.861Z,6.50
2019-03-31T19:16:25.087Z,6.70
2019-03-31T19:19:01.027Z,7.47
2019-03-31T19:21:46.613Z,7.57
2019-03-31T19:24:25.651Z,8.23
2019-03-31T19:27:10.979Z,7.47
2019-03-31T19:29:44.230Z,9.50
2019-03-31T19:32:14.448Z,10.93
2019-03-31T19:34:44.577Z,7.97
2019-03-31T19:37:30.849Z,8.97
2019-03-31T19:40:12.947Z,9.13
2019-03-31T19:42:54.939Z,7.87
2019-03-31T19:45:25.140Z,10.50
2019-03-31T19:47:55.374Z,9.07
2019-03-31T19:50:31.289Z,8.53
2019-03-31T19:53:01.513Z,7.37
2019-03-31T19:55:34.709Z,7.60
2019-03-31T19:58:07.958Z,10.00
2019-03-31T20:00:47.376Z,12.27
2019-03-31T20:03:29.829Z,8.37
2019-03-31T20:06:00.027Z,9.23
2019-03-31T20:08:39.407Z,9.33
2019-03-31T20:11:27.899Z,8.77
2019-03-31T20:13:58.117Z,8.33
2019-03-31T20:16:28.316Z,7.73
2019-03-31T20:18:58.541Z,8.73
2019-03-31T20:21:32.558Z,9.33
2019-03-31T20:24:17.917Z,10.40
2019-03-31T20:26:51.021Z,7.10
2019-03-31T20:29:24.141Z,7.43
2019-03-31T20:32:09.684Z,8.47
2019-03-31T20:34:45.341Z,8.77
2019-03-31T20:37:31.919Z,8.03
2019-03-31T20:40:02.145Z,7.43
2019-03-31T20:42:48.669Z,9.73
2019-03-31T20:45:17.262Z,10.13
2019-03-31T20:47:45.819Z,8.27
2019-03-31T20:50:14.517Z,9.80
2019-03-31T20:52:43.105Z,8.93
2019-03-31T20:55:16.442Z,8.67
2019-03-31T20:57:41.905Z,8.83
2019-03-31T21:00:10.869Z,9.47
2019-03-31T21:02:39.398Z,9.97
2019-03-31T21:05:07.955Z,8.97
2019-03-31T21:07:36.644Z,8.20
2019-03-31T21:10:06.728Z,9.10
2019-03-31T21:12:35.247Z,6.90
2019-03-31T21:15:05.169Z,8.67
2019-03-31T21:17:33.717Z,7.40
2019-03-31T21:20:02.310Z,9.43
2019-03-31T21:22:30.857Z,7.67
2019-03-31T21:24:59.441Z,8.73
2019-03-31T21:27:27.915Z,9.50
2019-03-31T21:29:56.587Z,7.67
2019-03-31T21:32:25.147Z,9.27
2019-03-31T21:34:53.729Z,10.83
2019-03-31T21:37:22.203Z,8.97
2019-03-31T21:39:50.787Z,8.33
2019-03-31T21:42:19.352Z,10.53
2019-03-31T21:44:47.927Z,8.13
2019-03-31T21:47:16.482Z,11.23
2019-03-31T21:49:45.065Z,7.33
2019-03-31T21:52:13.537Z,8.20
2019-03-31T21:54:42.044Z,7.67
2019-03-31T21:57:10.627Z,8.83
2019-03-31T21:59:39.209Z,7.87
2019-03-31T22:02:08.004Z,8.50
2019-03-31T22:04:36.613Z,7.53
2019-03-31T22:07:05.509Z,11.20
2019-03-31T22:09:34.093Z,7.87
2019-03-31T22:12:02.641Z,6.67
2019-03-31T22:14:31.233Z,9.27
2019-03-31T22:16:59.788Z,6.37
2019-03-31T22:19:28.421Z,7.83
2019-03-31T22:21:56.965Z,7.70
2019-03-31T22:24:25.505Z,9.00
2019-03-31T22:26:54.065Z,7.50
2019-03-31T22:29:22.533Z,7.97
2019-03-31T22:31:51.045Z,8.30
2019-03-31T22:34:19.602Z,6.60
2019-03-31T22:36:48.177Z,5.83
2019-03-31T22:39:16.663Z,8.13
2019-03-31T22:41:45.245Z,10.50
2019-03-31T22:44:13.788Z,5.97
2019-03-31T22:46:53.759Z,8.83
2019-03-31T22:49:12.502Z,8.70
2019-03-31T22:51:41.141Z,8.73
2019-03-31T22:54:09.617Z,7.73
2019-03-31T22:56:38.124Z,7.27
2019-03-31T22:59:09.646Z,9.53
2019-03-31T23:01:36.901Z,8.40
2019-03-31T23:04:05.522Z,6.43
2019-03-31T23:06:34.108Z,7.73
2019-03-31T23:09:02.589Z,9.73
2019-03-31T23:11:31.171Z,7.67
2019-03-31T23:13:59.744Z,6.70
2019-03-31T23:16:28.317Z,7.50
2019-03-31T23:18:56.865Z,6.13
2019-03-31T23:21:25.443Z,6.77
2019-03-31T23:23:53.997Z,7.00
2019-03-31T23:26:22.515Z,7.03
2019-03-31T23:28:51.071Z,7.83
2019-03-31T23:31:19.653Z,7.87
2019-03-31T23:33:48.202Z,6.80
2019-03-31T23:36:16.781Z,8.13
2019-03-31T23:38:45.336Z,7.50
2019-03-31T23:41:14.012Z,14.40
2019-03-31T23:44:01.863Z,10.43
2019-03-31T23:46:30.457Z,5.93
2019-03-31T23:48:59.000Z,8.10
2019-03-31T23:51:27.665Z,8.90
2019-03-31T23:53:56.225Z,8.03
2019-03-31T23:56:24.815Z,10.43
2019-03-31T23:58:53.371Z,7.13
